Time;durP1;ratioP1;P1;durP2;ratioP2;P2;SDS_P1;SDS_P2;PMS_P1;PMS_P2;Temp;Humidity;BMP_temperature;BMP_pressure;BME280_temperature;BME280_humidity;BME280_pressure;Samples;Min_cycle;Max_cycle;Signal;HPM_P1;HPM_P2
2022/08/23 00:01:54;;;;;;;;;;;17.60;99.90;;;;;;5135612;27;19931;-76
2022/08/23 00:04:22;;;;;;;;;;;17.60;99.90;;;;;;5140818;27;19941;-76
2022/08/23 00:06:48;;;;;;;;;;;17.60;99.90;;;;;;5140403;27;19940;-76
2022/08/23 00:09:14;;;;;;;;;;;17.60;99.90;;;;;;5155563;27;20277;-76
2022/08/23 00:11:45;;;;;;;;;;;17.60;99.90;;;;;;5157763;27;20400;-75
2022/08/23 00:14:18;;;;;;;;;;;17.60;99.90;;;;;;5157993;27;19983;-76
2022/08/23 00:16:44;;;;;;;;;;;17.60;99.90;;;;;;5157832;27;19970;-82
2022/08/23 00:19:11;;;;;;;;;;;17.60;99.90;;;;;;5156051;27;19965;-76
2022/08/23 00:21:37;;;;;;;;;;;17.50;99.90;;;;;;5157575;27;20092;-76
2022/08/23 00:24:03;;;;;;;;;;;17.50;99.90;;;;;;5139966;27;19926;-76
2022/08/23 00:26:48;;;;;;;;;;;17.50;99.90;;;;;;5157770;27;20014;-76
2022/08/23 00:29:14;;;;;;;;;;;17.50;99.90;;;;;;5155817;27;19919;-76
2022/08/23 00:31:39;;;;;;;;;;;17.50;99.90;;;;;;5140317;27;19942;-76
2022/08/23 00:34:05;;;;;;;;;;;17.40;99.90;;;;;;5157001;27;20737;-76
2022/08/23 00:36:31;;;;;;;;;;;17.40;99.90;;;;;;5157544;27;19944;-76
2022/08/23 00:38:56;;;;;;;;;;;17.40;99.90;;;;;;5157209;27;19918;-76
2022/08/23 00:41:22;;;;;;;;;;;17.40;99.90;;;;;;5155207;27;20366;-76
2022/08/23 00:49:28;;;;;;;;;;;17.40;99.90;;;;;;5136672;27;19968;-75
2022/08/23 00:52:00;;;;;;;;;;;17.40;99.90;;;;;;5130180;27;20343;-76
2022/08/23 00:54:27;;;;;;;;;;;17.40;99.90;;;;;;5119316;27;19919;-76
2022/08/23 00:56:54;;;;;;;;;;;17.40;99.90;;;;;;5136149;27;19923;-76
2022/08/23 00:59:20;;;;;;;;;;;17.50;99.90;;;;;;5136281;27;19919;-76
2022/08/23 01:01:47;;;;;;;;;;;17.40;99.90;;;;;;5135574;27;19977;-76
2022/08/23 01:04:12;;;;;;;;;;;17.50;99.90;;;;;;5140184;27;19923;-76
2022/08/23 01:06:43;;;;;;;;;;;17.50;99.90;;;;;;5138879;27;19943;-76
2022/08/23 01:09:14;;;;;;;;;;;17.50;99.90;;;;;;5139893;27;20006;-76
2022/08/23 01:11:42;;;;;;;;;;;17.50;99.90;;;;;;5130037;27;20361;-76
2022/08/23 01:14:12;;;;;;;;;;;17.40;99.90;;;;;;5136590;27;20043;-76
2022/08/23 01:16:42;;;;;;;;;;;17.50;99.90;;;;;;5154082;27;19987;-76
2022/08/23 01:19:15;;;;;;;;;;;17.50;99.90;;;;;;5155678;27;19925;-77
2022/08/23 01:21:44;;;;;;;;;;;17.50;99.90;;;;;;5141813;27;20334;-76
2022/08/23 01:24:09;;;;;;;;;;;17.50;99.90;;;;;;5142915;27;19919;-76
2022/08/23 01:26:35;;;;;;;;;;;17.50;99.90;;;;;;5134674;27;20423;-76
2022/08/23 01:29:03;;;;;;;;;;;17.40;99.90;;;;;;5150354;27;20412;-76
2022/08/23 01:31:29;;;;;;;;;;;17.40;99.90;;;;;;5151249;27;20366;-76
2022/08/23 01:34:13;;;;;;;;;;;17.50;99.90;;;;;;5136680;27;19974;-80
2022/08/23 01:36:39;;;;;;;;;;;17.50;99.90;;;;;;5140231;27;19919;-76
2022/08/23 01:39:06;;;;;;;;;;;17.40;99.90;;;;;;5156084;27;20002;-75
2022/08/23 01:41:32;;;;;;;;;;;17.40;99.90;;;;;;5155326;27;19930;-76
2022/08/23 01:43:58;;;;;;;;;;;17.30;99.90;;;;;;5153006;27;20317;-76
2022/08/23 01:46:25;;;;;;;;;;;17.30;99.90;;;;;;5119969;27;19919;-76
2022/08/23 01:48:53;;;;;;;;;;;17.30;99.90;;;;;;5143296;27;20010;-76
2022/08/23 01:51:19;;;;;;;;;;;17.20;99.90;;;;;;5135070;27;19923;-76
2022/08/23 01:53:45;;;;;;;;;;;17.10;99.90;;;;;;5135372;27;20303;-75
2022/08/23 01:56:11;;;;;;;;;;;17.10;99.90;;;;;;5135008;27;19972;-76
2022/08/23 01:58:37;;;;;;;;;;;17.10;99.90;;;;;;5121840;27;19962;-76
2022/08/23 02:01:03;;;;;;;;;;;17.00;99.90;;;;;;5137872;27;20013;-76
2022/08/23 02:03:29;;;;;;;;;;;17.00;99.90;;;;;;5156811;27;19919;-76
2022/08/23 02:05:55;;;;;;;;;;;17.00;99.90;;;;;;5144159;27;20270;-75
2022/08/23 02:11:14;;;;;;;;;;;16.90;99.90;;;;;;5134452;27;20362;-76
2022/08/23 02:13:40;;;;;;;;;;;16.90;99.90;;;;;;5134621;27;19919;-76
2022/08/23 02:16:06;;;;;;;;;;;16.90;99.90;;;;;;5135576;27;20385;-76
2022/08/23 02:18:32;;;;;;;;;;;16.80;99.90;;;;;;5139623;27;20011;-76
2022/08/23 02:20:58;;;;;;;;;;;16.80;99.90;;;;;;5133726;27;19919;-76
2022/08/23 02:23:24;;;;;;;;;;;16.70;99.90;;;;;;5134805;27;19919;-76
2022/08/23 02:25:50;;;;;;;;;;;16.70;99.90;;;;;;5133997;27;20270;-76
2022/08/23 02:28:16;;;;;;;;;;;16.70;99.90;;;;;;5124691;27;19919;-77
2022/08/23 02:30:43;;;;;;;;;;;16.70;99.90;;;;;;5137017;27;20006;-77
2022/08/23 02:33:09;;;;;;;;;;;16.80;99.90;;;;;;5137371;27;19941;-76
2022/08/23 02:35:34;;;;;;;;;;;16.80;99.90;;;;;;5138153;27;19919;-76
2022/08/23 02:38:04;;;;;;;;;;;16.70;99.90;;;;;;5152589;27;19919;-76
2022/08/23 02:40:30;;;;;;;;;;;16.70;99.90;;;;;;5143205;27;19926;-75
2022/08/23 02:42:56;;;;;;;;;;;16.70;99.90;;;;;;5137962;27;19919;-75
2022/08/23 02:45:22;;;;;;;;;;;16.70;99.90;;;;;;5126416;27;20338;-76
2022/08/23 02:47:48;;;;;;;;;;;16.70;99.90;;;;;;5137701;27;20022;-76
2022/08/23 02:50:13;;;;;;;;;;;16.70;99.90;;;;;;5152755;27;20017;-76
2022/08/23 02:52:39;;;;;;;;;;;16.70;99.90;;;;;;5141607;27;20307;-76
2022/08/23 02:55:05;;;;;;;;;;;16.70;99.90;;;;;;5105138;27;19919;-76
2022/08/23 02:57:31;;;;;;;;;;;16.60;99.90;;;;;;5123675;27;20006;-76
2022/08/23 02:59:56;;;;;;;;;;;16.60;99.90;;;;;;5147427;27;20047;-76
2022/08/23 03:02:22;;;;;;;;;;;16.60;99.90;;;;;;5126066;27;19923;-75
2022/08/23 03:04:48;;;;;;;;;;;16.60;99.90;;;;;;5126652;27;19958;-76
2022/08/23 03:07:13;;;;;;;;;;;16.50;99.90;;;;;;5131359;27;19919;-76
2022/08/23 03:09:39;;;;;;;;;;;16.50;99.90;;;;;;5134774;27;20319;-76
2022/08/23 03:12:05;;;;;;;;;;;16.50;99.90;;;;;;5125820;27;19919;-76
2022/08/23 03:14:30;;;;;;;;;;;16.50;99.90;;;;;;5140947;27;19970;-76
2022/08/23 03:16:56;;;;;;;;;;;16.50;99.90;;;;;;5153006;27;19919;-76
2022/08/23 03:19:23;;;;;;;;;;;16.40;99.90;;;;;;5137105;27;19919;-76
2022/08/23 03:21:48;;;;;;;;;;;16.40;99.90;;;;;;5138704;27;19980;-76
2022/08/23 03:24:14;;;;;;;;;;;16.40;99.90;;;;;;5144282;27;19918;-76
2022/08/23 03:26:41;;;;;;;;;;;16.30;99.90;;;;;;5144238;27;19971;-77
2022/08/23 03:29:07;;;;;;;;;;;16.30;99.90;;;;;;5153665;27;20011;-76
2022/08/23 03:31:32;;;;;;;;;;;16.30;99.90;;;;;;5139878;27;19974;-76
2022/08/23 03:33:58;;;;;;;;;;;16.20;99.90;;;;;;5122734;27;19919;-76
2022/08/23 03:36:23;;;;;;;;;;;16.20;99.90;;;;;;5149460;27;19971;-76
2022/08/23 03:38:49;;;;;;;;;;;16.20;99.90;;;;;;5137732;27;20278;-76
2022/08/23 03:41:14;;;;;;;;;;;16.20;99.90;;;;;;5124488;27;20002;-76
2022/08/23 03:43:40;;;;;;;;;;;16.20;99.90;;;;;;5133906;27;19923;-76
2022/08/23 03:46:06;;;;;;;;;;;16.20;99.90;;;;;;5137046;27;19919;-76
2022/08/23 03:48:32;;;;;;;;;;;16.20;99.90;;;;;;5136673;27;20174;-76
2022/08/23 03:50:59;;;;;;;;;;;16.20;99.90;;;;;;5154266;27;19926;-76
2022/08/23 03:53:24;;;;;;;;;;;16.10;99.90;;;;;;5136425;27;20350;-76
2022/08/23 03:55:52;;;;;;;;;;;16.10;99.90;;;;;;5114216;27;20010;-76
2022/08/23 03:58:20;;;;;;;;;;;16.10;99.90;;;;;;5135779;27;19925;-76
2022/08/23 04:00:46;;;;;;;;;;;16.10;99.90;;;;;;5140342;27;19965;-81
2022/08/23 04:03:11;;;;;;;;;;;16.10;99.90;;;;;;5157531;27;19919;-76
2022/08/23 04:05:37;;;;;;;;;;;16.10;99.90;;;;;;5135543;27;19925;-76
2022/08/23 04:08:08;;;;;;;;;;;16.00;99.90;;;;;;5137929;27;19923;-76
2022/08/23 04:10:33;;;;;;;;;;;16.00;99.90;;;;;;5119395;27;20323;-76
2022/08/23 04:12:59;;;;;;;;;;;16.00;99.90;;;;;;5136753;27;19927;-76
2022/08/23 04:15:24;;;;;;;;;;;15.90;99.90;;;;;;5119439;27;19944;-77
2022/08/23 04:17:50;;;;;;;;;;;15.90;99.90;;;;;;5137247;27;19952;-76
2022/08/23 04:20:16;;;;;;;;;;;16.00;99.90;;;;;;5119287;27;19923;-77
2022/08/23 04:22:42;;;;;;;;;;;16.00;99.90;;;;;;5144037;27;19926;-76
2022/08/23 04:25:08;;;;;;;;;;;16.00;99.90;;;;;;5157353;27;19926;-76
2022/08/23 04:27:33;;;;;;;;;;;16.00;99.90;;;;;;5141616;27;19942;-76
2022/08/23 04:29:59;;;;;;;;;;;16.00;99.90;;;;;;5132948;27;19923;-76
2022/08/23 04:32:24;;;;;;;;;;;16.00;99.90;;;;;;5139806;27;20005;-76
2022/08/23 04:34:50;;;;;;;;;;;16.00;99.90;;;;;;5140718;27;19983;-76
2022/08/23 04:37:17;;;;;;;;;;;15.90;99.90;;;;;;5135502;27;19919;-76
2022/08/23 04:42:27;;;;;;;;;;;15.90;99.90;;;;;;5146743;27;19981;-76
2022/08/23 04:44:53;;;;;;;;;;;15.90;99.90;;;;;;5157116;27;19970;-76
2022/08/23 04:47:19;;;;;;;;;;;15.90;99.90;;;;;;5132961;27;19966;-78
2022/08/23 04:49:45;;;;;;;;;;;15.90;99.90;;;;;;5139822;27;19975;-76
2022/08/23 04:52:12;;;;;;;;;;;15.90;99.90;;;;;;5126018;27;19923;-76
2022/08/23 04:54:38;;;;;;;;;;;15.90;99.90;;;;;;5122731;27;20243;-76
2022/08/23 04:57:03;;;;;;;;;;;16.00;99.90;;;;;;5140789;27;19919;-76
2022/08/23 04:59:29;;;;;;;;;;;15.90;99.90;;;;;;5140012;27;19967;-76
2022/08/23 05:01:55;;;;;;;;;;;16.00;99.90;;;;;;5128048;27;20005;-76
2022/08/23 05:04:20;;;;;;;;;;;16.00;99.90;;;;;;5128196;27;19938;-76
2022/08/23 05:06:46;;;;;;;;;;;16.00;99.90;;;;;;5150012;27;19962;-77
2022/08/23 05:09:13;;;;;;;;;;;16.00;99.90;;;;;;5126133;27;19919;-76
2022/08/23 05:11:39;;;;;;;;;;;16.00;99.90;;;;;;5141880;27;20006;-76
2022/08/23 05:14:04;;;;;;;;;;;16.00;99.90;;;;;;5139576;27;20083;-76
2022/08/23 05:16:30;;;;;;;;;;;16.10;99.90;;;;;;5139418;27;19995;-76
2022/08/23 05:18:56;;;;;;;;;;;16.10;99.90;;;;;;5128154;27;19926;-77
2022/08/23 05:21:22;;;;;;;;;;;16.10;99.90;;;;;;5138882;27;19922;-77
2022/08/23 05:23:48;;;;;;;;;;;16.20;99.90;;;;;;5139963;27;19926;-77
2022/08/23 05:26:13;;;;;;;;;;;16.20;99.90;;;;;;5138122;27;19919;-77
2022/08/23 05:28:40;;;;;;;;;;;16.30;99.90;;;;;;5142745;27;19919;-76
2022/08/23 05:31:09;;;;;;;;;;;16.30;99.90;;;;;;5124131;27;19919;-77
2022/08/23 05:33:34;;;;;;;;;;;16.30;99.90;;;;;;5121065;27;19999;-80
2022/08/23 05:36:01;;;;;;;;;;;16.40;99.90;;;;;;5126610;27;19927;-77
2022/08/23 05:38:27;;;;;;;;;;;16.40;99.90;;;;;;5126996;27;20018;-77
2022/08/23 05:40:54;;;;;;;;;;;16.50;99.90;;;;;;5143854;27;20009;-77
2022/08/23 05:43:20;;;;;;;;;;;16.50;99.90;;;;;;5134782;27;19922;-78
2022/08/23 05:45:45;;;;;;;;;;;16.60;99.90;;;;;;5134556;27;19923;-77
2022/08/23 05:48:12;;;;;;;;;;;16.60;99.90;;;;;;5123142;27;20018;-77
2022/08/23 05:50:38;;;;;;;;;;;16.80;99.90;;;;;;5124236;27;20296;-76
2022/08/23 05:53:05;;;;;;;;;;;16.90;99.90;;;;;;5142592;27;19930;-77
2022/08/23 05:55:30;;;;;;;;;;;17.00;99.90;;;;;;5142174;27;20346;-77
2022/08/23 05:57:56;;;;;;;;;;;17.10;99.90;;;;;;5141445;27;19926;-79
2022/08/23 06:00:21;;;;;;;;;;;17.20;99.90;;;;;;5128678;27;19919;-80
2022/08/23 06:02:48;;;;;;;;;;;17.30;99.90;;;;;;5142256;27;19919;-80
2022/08/23 06:05:14;;;;;;;;;;;17.40;99.90;;;;;;5141633;27;20277;-80
2022/08/23 06:07:40;;;;;;;;;;;17.50;99.90;;;;;;5136510;27;20350;-80
2022/08/23 06:10:07;;;;;;;;;;;17.60;99.90;;;;;;5138143;27;19942;-80
2022/08/23 06:12:33;;;;;;;;;;;17.70;99.90;;;;;;5141227;27;20278;-80
2022/08/23 06:14:59;;;;;;;;;;;17.80;99.90;;;;;;5143155;27;20342;-81
2022/08/23 06:17:25;;;;;;;;;;;17.90;99.90;;;;;;5139335;27;19970;-80
2022/08/23 06:19:50;;;;;;;;;;;18.00;99.90;;;;;;5122870;27;19922;-83
2022/08/23 06:22:16;;;;;;;;;;;18.00;99.90;;;;;;5141602;27;20417;-83
2022/08/23 06:24:41;;;;;;;;;;;18.00;99.90;;;;;;5132206;27;20026;-87
2022/08/23 06:27:07;;;;;;;;;;;18.10;99.90;;;;;;5146799;27;19919;-75
2022/08/23 06:29:33;;;;;;;;;;;18.10;99.90;;;;;;5160470;27;20002;-78
2022/08/23 06:31:58;;;;;;;;;;;18.10;99.90;;;;;;5143973;27;19997;-77
2022/08/23 06:34:32;;;;;;;;;;;18.10;99.90;;;;;;5141429;27;19925;-80
2022/08/23 06:36:59;;;;;;;;;;;18.20;99.90;;;;;;5150330;27;19926;-80
2022/08/23 06:39:26;;;;;;;;;;;18.30;99.90;;;;;;5141628;27;19926;-79
2022/08/23 06:41:55;;;;;;;;;;;18.30;99.90;;;;;;5129646;27;19933;-79
2022/08/23 06:44:21;;;;;;;;;;;18.40;99.90;;;;;;5133533;27;19933;-79
2022/08/23 06:46:48;;;;;;;;;;;18.40;99.90;;;;;;5141018;27;19923;-80
2022/08/23 06:49:14;;;;;;;;;;;18.40;99.90;;;;;;5111129;27;19919;-79
2022/08/23 06:51:42;;;;;;;;;;;18.50;99.90;;;;;;5137296;27;19967;-79
2022/08/23 06:54:09;;;;;;;;;;;18.60;99.90;;;;;;5137260;27;19920;-79
2022/08/23 06:56:35;;;;;;;;;;;18.50;99.90;;;;;;5120427;27;20011;-79
2022/08/23 06:59:04;;;;;;;;;;;18.60;99.90;;;;;;5120295;27;19960;-79
2022/08/23 07:01:31;;;;;;;;;;;18.60;99.90;;;;;;5120314;27;20385;-79
2022/08/23 07:03:58;;;;;;;;;;;18.70;99.90;;;;;;5123612;27;20017;-79
2022/08/23 07:06:24;;;;;;;;;;;18.80;99.90;;;;;;5140890;27;19983;-80
2022/08/23 07:08:50;;;;;;;;;;;18.80;99.90;;;;;;5123486;27;20026;-79
2022/08/23 07:11:15;;;;;;;;;;;19.00;99.90;;;;;;5131804;27;19962;-87
2022/08/23 07:13:41;;;;;;;;;;;19.10;99.90;;;;;;5124503;27;20001;-76
2022/08/23 07:16:07;;;;;;;;;;;19.20;99.90;;;;;;5130017;27;19919;-76
2022/08/23 07:18:32;;;;;;;;;;;19.30;99.90;;;;;;5115641;27;20403;-78
2022/08/23 07:20:59;;;;;;;;;;;19.50;99.90;;;;;;5119554;27;19937;-79
2022/08/23 07:23:25;;;;;;;;;;;19.60;99.90;;;;;;5129106;27;20377;-77
2022/08/23 07:25:52;;;;;;;;;;;19.80;99.90;;;;;;5123581;27;19926;-80
2022/08/23 07:28:17;;;;;;;;;;;19.90;99.90;;;;;;5136408;27;20018;-78
2022/08/23 07:30:43;;;;;;;;;;;20.10;99.90;;;;;;5133205;27;19926;-79
2022/08/23 07:33:08;;;;;;;;;;;20.20;99.90;;;;;;5120550;27;19923;-77
2022/08/23 07:35:34;;;;;;;;;;;20.30;99.90;;;;;;5137920;27;19948;-77
2022/08/23 07:37:59;;;;;;;;;;;20.40;99.90;;;;;;5119410;27;19970;-78
2022/08/23 07:40:25;;;;;;;;;;;20.50;99.90;;;;;;5125266;27;19926;-77
2022/08/23 07:42:51;;;;;;;;;;;20.60;99.90;;;;;;5130978;27;20362;-77
2022/08/23 07:45:17;;;;;;;;;;;20.60;99.90;;;;;;5124798;27;20017;-77
2022/08/23 07:47:42;;;;;;;;;;;20.80;99.90;;;;;;5113030;27;19931;-80
2022/08/23 07:50:08;;;;;;;;;;;20.90;99.90;;;;;;5130273;27;19973;-78
2022/08/23 07:52:34;;;;;;;;;;;21.00;99.90;;;;;;5124869;27;19926;-76
2022/08/23 07:55:00;;;;;;;;;;;21.00;99.90;;;;;;5123909;27;20460;-77
2022/08/23 07:57:26;;;;;;;;;;;21.10;99.90;;;;;;5119662;27;19919;-78
2022/08/23 07:59:51;;;;;;;;;;;21.20;99.90;;;;;;5120318;27;19918;-78
2022/08/23 08:02:17;;;;;;;;;;;21.20;99.90;;;;;;5132491;27;20005;-77
2022/08/23 08:04:43;;;;;;;;;;;21.40;99.90;;;;;;5144435;27;20001;-78
2022/08/23 08:07:08;;;;;;;;;;;21.40;99.90;;;;;;5135167;27;19919;-79
2022/08/23 08:09:34;;;;;;;;;;;21.60;99.90;;;;;;5126065;27;19965;-78
2022/08/23 08:11:59;;;;;;;;;;;21.70;99.90;;;;;;5140957;27;19919;-79
2022/08/23 08:14:25;;;;;;;;;;;21.80;99.90;;;;;;5123501;27;19952;-80
2022/08/23 08:16:51;;;;;;;;;;;21.90;99.90;;;;;;5126322;27;20034;-80
2022/08/23 08:19:17;;;;;;;;;;;22.00;99.90;;;;;;5120441;27;20386;-78
2022/08/23 08:21:44;;;;;;;;;;;22.20;99.90;;;;;;5141622;27;19954;-79
2022/08/23 08:24:12;;;;;;;;;;;22.30;99.90;;;;;;5139136;27;20278;-80
2022/08/23 08:26:38;;;;;;;;;;;22.40;99.90;;;;;;5144585;27;20303;-80
2022/08/23 08:29:04;;;;;;;;;;;22.50;99.90;;;;;;5125163;27;20238;-80
2022/08/23 08:31:30;;;;;;;;;;;22.50;99.90;;;;;;5128954;27;19925;-79
2022/08/23 08:33:55;;;;;;;;;;;22.50;99.90;;;;;;5114550;27;19919;-79
2022/08/23 08:36:41;;;;;;;;;;;22.60;99.90;;;;;;5108514;27;20002;-81
2022/08/23 08:39:08;;;;;;;;;;;22.70;99.90;;;;;;5149968;27;19923;-80
2022/08/23 08:41:33;;;;;;;;;;;22.90;99.90;;;;;;5124421;27;20324;-79
2022/08/23 08:44:02;;;;;;;;;;;23.00;99.90;;;;;;5141629;27;19922;-79
2022/08/23 08:46:44;;;;;;;;;;;23.20;99.90;;;;;;5123495;27;19926;-80
2022/08/23 08:49:13;;;;;;;;;;;23.40;99.90;;;;;;5139389;27;20262;-79
2022/08/23 08:51:42;;;;;;;;;;;23.70;99.90;;;;;;5142933;27;20358;-83
2022/08/23 08:54:09;;;;;;;;;;;24.00;99.90;;;;;;5131916;27;19919;-82
2022/08/23 08:56:36;;;;;;;;;;;24.30;99.90;;;;;;5140925;27;19918;-80
2022/08/23 08:59:05;;;;;;;;;;;24.30;99.90;;;;;;5159181;27;19926;-80
2022/08/23 09:01:31;;;;;;;;;;;24.50;99.90;;;;;;5143191;27;19919;-81
2022/08/23 09:03:57;;;;;;;;;;;24.50;99.90;;;;;;5139822;27;20013;-80
2022/08/23 09:06:35;;;;;;;;;;;24.50;99.90;;;;;;5122739;27;20058;-82
2022/08/23 09:09:10;;;;;;;;;;;24.50;99.90;;;;;;5131917;27;20277;-85
2022/08/23 09:11:44;;;;;;;;;;;24.60;99.90;;;;;;5122549;27;19969;-83
2022/08/23 09:14:12;;;;;;;;;;;24.60;99.90;;;;;;5136826;27;20357;-84
2022/08/23 09:16:52;;;;;;;;;;;24.60;99.90;;;;;;5137354;27;20296;-87
2022/08/23 09:19:20;;;;;;;;;;;24.70;99.90;;;;;;5119732;27;19919;-87
2022/08/23 09:21:47;;;;;;;;;;;24.90;99.90;;;;;;5119605;27;19931;-88
2022/08/23 09:24:13;;;;;;;;;;;25.00;99.90;;;;;;5142280;27;20389;-88
2022/08/23 09:26:38;;;;;;;;;;;25.10;99.90;;;;;;5146938;27;20405;-92
2022/08/23 09:29:13;;;;;;;;;;;25.10;99.90;;;;;;5141789;27;19931;-83
2022/08/23 09:31:41;;;;;;;;;;;25.10;99.90;;;;;;5134274;27;19923;-82
2022/08/23 09:34:07;;;;;;;;;;;25.10;99.90;;;;;;5125608;27;19919;-82
2022/08/23 09:36:35;;;;;;;;;;;25.20;99.90;;;;;;5144220;27;19922;-82
2022/08/23 09:39:22;;;;;;;;;;;25.20;99.90;;;;;;5141193;27;20322;-83
2022/08/23 09:41:49;;;;;;;;;;;25.20;99.90;;;;;;5136155;27;19919;-82
2022/08/23 09:44:29;;;;;;;;;;;25.20;99.90;;;;;;5123455;27;19922;-83
2022/08/23 09:47:03;;;;;;;;;;;25.30;99.90;;;;;;5156256;27;19974;-82
2022/08/23 09:49:29;;;;;;;;;;;25.30;99.90;;;;;;5146633;27;20002;-84
2022/08/23 09:51:57;;;;;;;;;;;25.30;99.90;;;;;;5149224;27;20013;-83
2022/08/23 09:54:31;;;;;;;;;;;25.30;99.90;;;;;;5137742;27;19927;-82
2022/08/23 09:56:59;;;;;;;;;;;25.30;99.90;;;;;;5139182;27;19930;-76
2022/08/23 09:59:25;;;;;;;;;;;25.40;99.90;;;;;;5134611;27;19966;-77
2022/08/23 10:01:52;;;;;;;;;;;25.40;99.90;;;;;;5129444;27;20397;-77
2022/08/23 10:04:21;;;;;;;;;;;25.50;99.90;;;;;;5133891;27;20004;-78
2022/08/23 10:06:47;;;;;;;;;;;25.50;99.90;;;;;;5135821;27;20009;-79
2022/08/23 10:09:22;;;;;;;;;;;25.70;99.90;;;;;;5129552;27;20026;-79
2022/08/23 10:11:47;;;;;;;;;;;25.80;99.90;;;;;;5118665;27;19923;-79
2022/08/23 10:14:18;;;;;;;;;;;25.90;99.90;;;;;;5135435;27;19934;-79
2022/08/23 10:16:46;;;;;;;;;;;26.00;99.90;;;;;;5135585;27;19923;-79
2022/08/23 10:19:24;;;;;;;;;;;26.00;99.90;;;;;;5134999;27;19930;-78
2022/08/23 10:21:59;;;;;;;;;;;26.20;99.90;;;;;;5153983;27;19927;-79
2022/08/23 10:24:36;;;;;;;;;;;26.20;99.90;;;;;;5134584;27;19919;-78
2022/08/23 10:29:35;;;;;;;;;;;26.30;99.90;;;;;;5133322;27;19923;-79
2022/08/23 10:30:01;;;;;;;;;;;26.40;99.90;;;;;;5141232;27;19924;-76
2022/08/23 10:32:39;;;;;;;;;;;26.60;99.90;;;;;;5142165;27;19931;-74
2022/08/23 10:35:23;;;;;;;;;;;26.60;99.90;;;;;;5130631;27;19918;-74
2022/08/23 10:37:49;;;;;;;;;;;26.60;99.90;;;;;;5150815;27;19919;-74
2022/08/23 10:40:22;;;;;;;;;;;26.80;99.90;;;;;;5142737;27;19926;-73
2022/08/23 10:42:57;;;;;;;;;;;26.90;99.90;;;;;;5136780;27;19931;-74
2022/08/23 10:45:23;;;;;;;;;;;27.00;99.90;;;;;;5133835;27;19952;-74
2022/08/23 10:47:57;;;;;;;;;;;27.10;99.90;;;;;;5136753;27;19919;-74
2022/08/23 10:50:23;;;;;;;;;;;27.30;99.90;;;;;;5131527;27;19930;-74
2022/08/23 10:52:52;;;;;;;;;;;27.50;99.90;;;;;;5117327;27;20022;-74
2022/08/23 10:55:34;;;;;;;;;;;27.60;99.90;;;;;;5142655;27;20001;-74
2022/08/23 10:58:05;;;;;;;;;;;27.80;99.90;;;;;;5129879;27;19919;-74
2022/08/23 11:00:33;;;;;;;;;;;27.90;99.90;;;;;;5133086;27;20437;-73
2022/08/23 11:03:07;;;;;;;;;;;28.10;99.90;;;;;;5136850;27;20398;-74
2022/08/23 11:05:34;;;;;;;;;;;28.10;99.90;;;;;;5135427;27;19942;-74
2022/08/23 11:08:29;;;;;;;;;;;28.00;99.90;;;;;;5133654;27;20003;-74
2022/08/23 11:10:55;;;;;;;;;;;28.00;99.90;;;;;;5147368;27;19961;-75
2022/08/23 11:13:28;;;;;;;;;;;28.10;99.90;;;;;;5122218;27;19923;-75
2022/08/23 11:16:05;;;;;;;;;;;28.10;99.90;;;;;;5123793;27;20366;-76
2022/08/23 11:18:44;;;;;;;;;;;28.00;99.90;;;;;;5122833;27;20435;-76
2022/08/23 11:21:32;;;;;;;;;;;28.00;99.90;;;;;;5124989;27;20009;-78
2022/08/23 11:23:57;;;;;;;;;;;27.90;99.90;;;;;;5130827;27;19933;-76
2022/08/23 11:26:30;;;;;;;;;;;27.70;99.90;;;;;;5150790;27;19923;-76
2022/08/23 11:28:55;;;;;;;;;;;27.80;99.90;;;;;;5135276;27;20015;-76
2022/08/23 11:31:24;;;;;;;;;;;27.70;99.90;;;;;;5133633;27;20033;-75
2022/08/23 11:33:52;;;;;;;;;;;27.80;99.90;;;;;;5133700;27;19920;-76
2022/08/23 11:36:20;;;;;;;;;;;27.60;99.90;;;;;;5134166;27;19963;-76
2022/08/23 11:38:46;;;;;;;;;;;27.50;99.90;;;;;;5125127;27;20308;-76
2022/08/23 11:41:17;;;;;;;;;;;27.40;99.90;;;;;;5138158;27;19920;-76
2022/08/23 11:43:44;;;;;;;;;;;27.40;99.90;;;;;;5129068;27;19937;-76
2022/08/23 11:46:24;;;;;;;;;;;27.40;99.90;;;;;;5141013;27;19923;-86
2022/08/23 11:48:59;;;;;;;;;;;27.40;99.90;;;;;;5121832;27;19919;-83
2022/08/23 11:51:24;;;;;;;;;;;27.40;99.90;;;;;;5144901;27;19923;-84
2022/08/23 11:53:53;;;;;;;;;;;27.40;99.90;;;;;;5116991;27;19923;-84
2022/08/23 11:56:21;;;;;;;;;;;27.60;99.90;;;;;;5116437;27;19923;-83
2022/08/23 11:59:06;;;;;;;;;;;27.70;99.90;;;;;;5131924;27;19930;-85
2022/08/23 12:01:33;;;;;;;;;;;27.80;99.90;;;;;;5137970;27;20247;-84
2022/08/23 12:04:00;;;;;;;;;;;27.70;99.90;;;;;;5136927;27;19926;-83
2022/08/23 12:06:46;;;;;;;;;;;27.60;99.90;;;;;;5158892;27;20239;-85
2022/08/23 12:09:32;;;;;;;;;;;27.50;99.90;;;;;;5141227;27;19919;-85
2022/08/23 12:12:08;;;;;;;;;;;27.50;99.90;;;;;;5121268;27;19924;-87
2022/08/23 12:14:35;;;;;;;;;;;27.40;99.90;;;;;;5152513;27;20278;-85
2022/08/23 12:17:24;;;;;;;;;;;27.90;99.90;;;;;;5159182;27;19930;-92
2022/08/23 12:20:09;;;;;;;;;;;28.20;99.90;;;;;;5100639;27;19923;-89
2022/08/23 12:22:53;;;;;;;;;;;28.20;99.90;;;;;;5155607;27;20294;-91
2022/08/23 12:25:20;;;;;;;;;;;28.40;99.90;;;;;;5121185;27;19978;-88
2022/08/23 12:27:48;;;;;;;;;;;28.70;99.90;;;;;;5147263;27;19919;-88
2022/08/23 12:30:17;;;;;;;;;;;28.80;99.90;;;;;;5137128;27;19919;-90
2022/08/23 12:33:03;;;;;;;;;;;28.70;99.90;;;;;;5152620;27;20323;-87
2022/08/23 12:36:04;;;;;;;;;;;28.80;99.90;;;;;;5138622;27;19923;-87
2022/08/23 12:38:29;;;;;;;;;;;28.90;99.90;;;;;;5069391;28;19971;-88
2022/08/23 12:40:55;;;;;;;;;;;29.00;99.90;;;;;;5132933;27;20326;-87
2022/08/23 12:43:22;;;;;;;;;;;29.10;99.90;;;;;;5105689;27;19966;-87
2022/08/23 12:45:52;;;;;;;;;;;29.00;99.90;;;;;;5113436;28;19972;-88
2022/08/23 12:48:21;;;;;;;;;;;29.00;99.90;;;;;;5106022;27;19941;-87
2022/08/23 12:50:52;;;;;;;;;;;29.00;99.90;;;;;;5103643;28;19958;-88
2022/08/23 12:53:25;;;;;;;;;;;29.30;99.90;;;;;;5101762;27;19929;-88
2022/08/23 12:55:57;;;;;;;;;;;29.50;99.90;;;;;;5132305;27;19980;-88
2022/08/23 12:58:27;;;;;;;;;;;29.90;99.90;;;;;;5126093;27;19923;-89
2022/08/23 13:00:54;;;;;;;;;;;29.70;99.90;;;;;;5113563;27;19924;-86
2022/08/23 13:03:22;;;;;;;;;;;29.80;99.90;;;;;;5094740;28;19923;-85
2022/08/23 13:05:56;;;;;;;;;;;30.00;99.90;;;;;;5108275;27;19931;-87
2022/08/23 13:08:44;;;;;;;;;;;30.20;99.90;;;;;;5098462;27;19972;-87
2022/08/23 13:11:11;;;;;;;;;;;30.60;99.90;;;;;;5117361;27;19931;-88
2022/08/23 13:13:38;;;;;;;;;;;30.80;99.80;;;;;;5116868;27;19972;-88
2022/08/23 13:16:24;;;;;;;;;;;30.90;99.60;;;;;;5123713;27;19919;-87
2022/08/23 13:18:49;;;;;;;;;;;31.10;99.90;;;;;;5116878;27;19924;-90
2022/08/23 13:21:17;;;;;;;;;;;31.00;99.50;;;;;;5112947;28;20021;-90
2022/08/23 13:23:42;;;;;;;;;;;30.90;99.90;;;;;;5096311;28;19924;-91
2022/08/23 13:26:25;;;;;;;;;;;30.70;99.90;;;;;;5079843;28;20022;-90
2022/08/23 13:29:05;;;;;;;;;;;30.80;99.90;;;;;;5096255;28;19946;-88
2022/08/23 13:32:06;;;;;;;;;;;31.10;99.90;;;;;;5098230;27;19968;-86
2022/08/23 13:34:42;;;;;;;;;;;31.30;99.50;;;;;;4999125;28;19925;-85
2022/08/23 13:37:26;;;;;;;;;;;31.70;98.40;;;;;;5100395;28;19924;-86
2022/08/23 13:40:06;;;;;;;;;;;32.00;99.00;;;;;;5102477;28;20274;-86
2022/08/23 13:42:37;;;;;;;;;;;32.50;97.20;;;;;;5127597;27;19923;-85
2022/08/23 13:45:07;;;;;;;;;;;32.50;96.60;;;;;;5153000;27;20018;-86
2022/08/23 13:47:33;;;;;;;;;;;32.30;95.60;;;;;;5151301;27;19930;-84
2022/08/23 13:50:00;;;;;;;;;;;32.40;95.50;;;;;;5120057;27;20248;-87
2022/08/23 13:52:26;;;;;;;;;;;32.10;95.70;;;;;;5142516;27;19929;-82
2022/08/23 13:54:51;;;;;;;;;;;31.90;95.60;;;;;;5118333;27;20276;-85
2022/08/23 13:57:17;;;;;;;;;;;32.00;97.80;;;;;;5122201;27;19923;-86
2022/08/23 13:59:53;;;;;;;;;;;31.60;98.80;;;;;;5141679;27;19933;-91
2022/08/23 14:02:20;;;;;;;;;;;31.40;98.50;;;;;;5138182;27;20378;-87
2022/08/23 14:04:45;;;;;;;;;;;31.20;99.00;;;;;;5146163;27;19923;-90
2022/08/23 14:07:11;;;;;;;;;;;31.30;99.10;;;;;;5147762;27;19929;-91
2022/08/23 14:09:37;;;;;;;;;;;31.70;99.50;;;;;;5150075;27;19927;-91
2022/08/23 14:12:13;;;;;;;;;;;31.70;98.00;;;;;;5124233;27;20459;-91
2022/08/23 14:14:39;;;;;;;;;;;31.90;97.60;;;;;;5148762;27;19939;-90
2022/08/23 14:17:05;;;;;;;;;;;32.00;98.40;;;;;;5139205;27;19949;-91
2022/08/23 14:19:30;;;;;;;;;;;31.70;97.60;;;;;;5106187;27;19919;-90
2022/08/23 14:21:57;;;;;;;;;;;31.60;97.10;;;;;;5098347;27;19968;-91
2022/08/23 14:24:22;;;;;;;;;;;31.50;96.90;;;;;;5133027;27;19920;-90
2022/08/23 14:26:48;;;;;;;;;;;31.40;97.60;;;;;;5126788;27;19919;-89
2022/08/23 14:29:14;;;;;;;;;;;31.80;98.40;;;;;;5123988;27;19966;-90
2022/08/23 14:31:40;;;;;;;;;;;32.30;98.30;;;;;;5133617;27;19924;-91
2022/08/23 14:34:05;;;;;;;;;;;32.80;97.30;;;;;;5144199;27;19950;-90
2022/08/23 14:36:31;;;;;;;;;;;33.30;97.70;;;;;;5115279;27;19919;-91